Time;durP1;ratioP1;P1;durP2;ratioP2;P2;SDS_P1;SDS_P2;PMS_P1;PMS_P2;Temp;Humidity;BMP_temperature;BMP_pressure;BME280_temperature;BME280_humidity;BME280_pressure;Samples;Min_cycle;Max_cycle;Signal;HPM_P1;HPM_P2
2022/05/08 00:01:04;;;;;;;4.80;4.40;;;12.90;99.90;;;;;;494602;240;29168;-70
2022/05/08 00:03:05;;;;;;;5.67;5.07;;;12.90;99.90;;;;;;494609;240;28378;-72
2022/05/08 00:05:06;;;;;;;5.23;4.70;;;12.90;99.90;;;;;;494605;240;28351;-70
2022/05/08 00:07:07;;;;;;;5.37;4.87;;;13.00;99.90;;;;;;494619;240;28281;-70
2022/05/08 00:09:11;;;;;;;5.03;4.53;;;13.00;99.90;;;;;;494577;240;28275;-70
2022/05/08 00:11:12;;;;;;;4.30;4.00;;;13.00;99.90;;;;;;494561;240;28431;-70
2022/05/08 00:13:14;;;;;;;5.33;4.53;;;13.00;99.90;;;;;;494581;240;28162;-70
2022/05/08 00:15:17;;;;;;;4.70;4.30;;;;;;;;;;494584;240;28820;-70
2022/05/08 00:17:18;;;;;;;7.23;5.20;;;12.90;99.90;;;;;;494605;239;27354;-71
2022/05/08 00:19:19;;;;;;;5.17;4.67;;;12.90;99.90;;;;;;494586;240;28523;-71
2022/05/08 00:21:20;;;;;;;5.80;5.07;;;12.90;99.90;;;;;;494591;240;28150;-71
2022/05/08 00:23:22;;;;;;;8.27;5.27;;;12.90;99.90;;;;;;494579;240;28246;-70
2022/05/08 00:25:24;;;;;;;4.40;4.00;;;12.90;99.90;;;;;;494624;240;28025;-70
2022/05/08 00:27:24;;;;;;;5.00;4.50;;;12.80;99.90;;;;;;494515;240;28382;-73
2022/05/08 00:29:25;;;;;;;9.80;5.10;;;12.80;99.90;;;;;;494600;240;28772;-70
2022/05/08 00:31:27;;;;;;;4.90;4.43;;;12.80;99.90;;;;;;494570;240;28712;-70
2022/05/08 00:33:28;;;;;;;5.23;4.83;;;12.70;99.90;;;;;;494569;240;28670;-70
2022/05/08 00:35:29;;;;;;;5.50;4.97;;;12.70;99.90;;;;;;494611;240;28704;-70
2022/05/08 00:37:30;;;;;;;5.67;5.17;;;12.70;99.90;;;;;;494573;240;28615;-73
2022/05/08 00:39:35;;;;;;;5.10;4.47;;;12.70;99.90;;;;;;494593;240;29277;-70
2022/05/08 00:41:33;;;;;;;5.60;5.10;;;12.60;99.90;;;;;;494304;240;28141;-70
2022/05/08 00:43:34;;;;;;;6.50;5.13;;;12.60;99.90;;;;;;494562;240;28343;-70
2022/05/08 00:45:35;;;;;;;6.43;4.77;;;12.50;99.90;;;;;;494618;240;28409;-70
2022/05/08 00:47:37;;;;;;;5.70;5.20;;;12.50;99.90;;;;;;494576;240;28102;-74
2022/05/08 00:49:38;;;;;;;5.30;4.90;;;12.50;99.90;;;;;;494584;240;28321;-70
2022/05/08 00:51:39;;;;;;;5.20;4.60;;;12.50;99.90;;;;;;494581;240;27957;-71
2022/05/08 00:53:41;;;;;;;5.60;5.10;;;12.50;99.90;;;;;;494588;240;28869;-71
2022/05/08 00:55:42;;;;;;;5.60;5.10;;;12.40;99.90;;;;;;494480;240;28369;-71
2022/05/08 00:57:44;;;;;;;5.60;5.00;;;12.40;99.90;;;;;;494592;240;28855;-70
2022/05/08 00:59:44;;;;;;;4.67;4.27;;;12.30;99.90;;;;;;494541;240;28843;-70
2022/05/08 01:01:45;;;;;;;4.30;3.90;;;12.30;99.90;;;;;;494578;240;28877;-70
2022/05/08 01:03:47;;;;;;;4.17;3.87;;;12.20;99.90;;;;;;494606;239;29047;-69
2022/05/08 01:05:48;;;;;;;3.90;3.60;;;12.10;99.90;;;;;;494597;240;28042;-69
2022/05/08 01:07:49;;;;;;;3.97;3.67;;;12.00;99.90;;;;;;494580;240;28296;-71
2022/05/08 01:09:50;;;;;;;3.83;3.53;;;11.90;99.90;;;;;;494566;240;28235;-69
2022/05/08 01:11:52;;;;;;;3.13;2.93;;;11.90;99.90;;;;;;494557;240;28286;-70
2022/05/08 01:13:53;;;;;;;3.50;3.30;;;11.90;99.90;;;;;;494626;240;28444;-71
2022/05/08 01:15:55;;;;;;;3.60;3.40;;;11.90;99.90;;;;;;494578;240;28262;-70
2022/05/08 01:17:57;;;;;;;3.70;3.40;;;11.80;99.90;;;;;;494563;240;28391;-71
2022/05/08 01:19:57;;;;;;;3.40;3.20;;;11.70;99.90;;;;;;494477;240;28103;-70
2022/05/08 01:21:58;;;;;;;3.00;2.80;;;11.70;99.90;;;;;;494572;240;28946;-70
2022/05/08 01:23:59;;;;;;;3.20;3.00;;;11.60;99.90;;;;;;494596;240;28962;-72
2022/05/08 01:26:00;;;;;;;3.60;3.30;;;11.60;99.90;;;;;;494575;240;28524;-70
2022/05/08 01:28:02;;;;;;;2.87;2.67;;;11.50;99.90;;;;;;494587;240;28274;-72
2022/05/08 01:30:03;;;;;;;3.40;3.10;;;11.50;99.90;;;;;;494543;240;28027;-69
2022/05/08 01:32:04;;;;;;;3.50;3.30;;;11.50;99.90;;;;;;494540;239;28096;-70
2022/05/08 01:34:06;;;;;;;3.80;3.50;;;11.40;99.90;;;;;;494619;240;28054;-71
2022/05/08 01:36:07;;;;;;;3.23;3.03;;;11.40;99.90;;;;;;494609;240;28274;-70
2022/05/08 01:38:08;;;;;;;3.20;3.00;;;11.30;99.90;;;;;;494601;240;28148;-71
2022/05/08 01:40:09;;;;;;;3.50;3.30;;;11.30;99.90;;;;;;494594;240;28378;-70
2022/05/08 01:42:11;;;;;;;4.77;3.20;;;11.20;99.90;;;;;;494542;240;28597;-70
2022/05/08 01:44:12;;;;;;;3.60;3.30;;;11.20;99.90;;;;;;494623;240;28508;-73
2022/05/08 01:46:13;;;;;;;3.20;3.00;;;11.10;99.90;;;;;;494588;240;28154;-69
2022/05/08 01:48:23;;;;;;;3.87;3.57;;;11.10;99.90;;;;;;494572;240;27946;-71
2022/05/08 01:50:24;;;;;;;4.00;3.40;;;11.10;99.90;;;;;;494507;240;28583;-71
2022/05/08 01:52:26;;;;;;;3.83;3.53;;;11.00;99.90;;;;;;494587;240;28301;-70
2022/05/08 01:54:27;;;;;;;3.73;3.43;;;11.00;99.90;;;;;;494610;240;28155;-70
2022/05/08 01:56:28;;;;;;;3.30;3.10;;;11.00;99.90;;;;;;494629;240;27946;-73
2022/05/08 01:58:29;;;;;;;3.00;2.80;;;10.90;99.90;;;;;;494618;240;27911;-70
2022/05/08 02:00:31;;;;;;;3.30;3.10;;;10.90;99.90;;;;;;494616;240;27951;-71
2022/05/08 02:02:32;;;;;;;3.33;3.03;;;10.90;99.90;;;;;;494578;240;27948;-70
2022/05/08 02:04:33;;;;;;;3.57;3.27;;;10.90;99.90;;;;;;494590;240;28004;-70
2022/05/08 02:06:34;;;;;;;3.77;3.57;;;10.80;99.90;;;;;;494643;240;27920;-72
2022/05/08 02:08:36;;;;;;;3.30;3.10;;;10.70;99.90;;;;;;494623;240;27862;-69
2022/05/08 02:10:37;;;;;;;3.60;3.30;;;10.70;99.90;;;;;;494632;240;27859;-71
2022/05/08 02:12:38;;;;;;;3.50;3.20;;;10.60;99.90;;;;;;494577;240;28497;-70
2022/05/08 02:14:41;;;;;;;3.20;3.00;;;10.70;99.90;;;;;;494567;240;28417;-70
2022/05/08 02:16:41;;;;;;;3.13;2.93;;;10.60;99.90;;;;;;494481;240;28436;-70
2022/05/08 02:18:42;;;;;;;3.70;3.10;;;10.50;99.90;;;;;;494613;240;27878;-70
2022/05/08 02:20:43;;;;;;;3.47;3.17;;;10.50;99.90;;;;;;494614;240;27838;-71
2022/05/08 02:22:44;;;;;;;3.43;3.13;;;10.40;99.90;;;;;;494599;240;27838;-70
2022/05/08 02:24:46;;;;;;;3.70;3.13;;;10.30;99.90;;;;;;494605;240;28064;-70
2022/05/08 02:26:47;;;;;;;3.00;2.80;;;10.30;99.90;;;;;;494611;240;27932;-70
2022/05/08 02:28:48;;;;;;;3.10;2.90;;;10.30;99.90;;;;;;494628;240;27684;-70
2022/05/08 02:30:49;;;;;;;3.40;3.20;;;10.30;99.90;;;;;;494600;240;27841;-71
2022/05/08 02:32:53;;;;;;;3.27;3.07;;;10.30;99.90;;;;;;494595;240;27926;-69
2022/05/08 02:34:55;;;;;;;3.13;2.93;;;10.20;99.90;;;;;;494625;240;27797;-70
2022/05/08 02:36:56;;;;;;;3.67;3.37;;;10.20;99.90;;;;;;494606;240;27943;-70
2022/05/08 02:38:57;;;;;;;3.70;3.40;;;10.20;99.90;;;;;;494584;240;27810;-70
2022/05/08 02:40:58;;;;;;;3.37;3.10;;;10.20;99.90;;;;;;494637;240;27895;-70
2022/05/08 02:43:00;;;;;;;3.27;3.07;;;10.20;99.90;;;;;;494633;240;27914;-71
2022/05/08 02:45:01;;;;;;;3.50;3.20;;;10.10;99.90;;;;;;494587;240;27815;-69
2022/05/08 02:47:02;;;;;;;4.90;3.30;;;10.10;99.90;;;;;;494579;240;27852;-70
2022/05/08 02:49:03;;;;;;;3.57;3.33;;;10.10;99.90;;;;;;494592;240;27808;-69
2022/05/08 02:51:05;;;;;;;3.97;3.67;;;10.10;99.90;;;;;;494602;240;28341;-69
2022/05/08 02:53:06;;;;;;;3.67;3.47;;;10.10;99.90;;;;;;494522;239;28327;-72
2022/05/08 02:59:46;;;;;;;4.03;3.73;;;10.00;99.90;;;;;;494555;240;27951;-70
2022/05/08 03:01:48;;;;;;;3.73;3.43;;;10.00;99.90;;;;;;494451;240;27568;-70
2022/05/08 03:03:49;;;;;;;3.30;3.10;;;10.00;99.90;;;;;;494618;240;27795;-70
2022/05/08 03:05:50;;;;;;;3.70;3.40;;;10.00;99.90;;;;;;494611;240;27838;-72
2022/05/08 03:07:51;;;;;;;3.73;3.53;;;10.00;99.90;;;;;;494609;240;27833;-70
2022/05/08 03:09:53;;;;;;;3.83;3.60;;;9.90;99.90;;;;;;494598;240;27929;-70
2022/05/08 03:11:54;;;;;;;3.80;3.50;;;9.90;99.90;;;;;;494579;240;27927;-70
2022/05/08 03:13:55;;;;;;;3.30;3.10;;;9.80;99.90;;;;;;494625;240;27702;-69
2022/05/08 03:15:56;;;;;;;4.20;3.90;;;9.70;99.90;;;;;;494586;240;27482;-71
2022/05/08 03:17:58;;;;;;;3.47;3.17;;;9.70;99.90;;;;;;494609;240;27936;-70
2022/05/08 03:19:59;;;;;;;4.27;3.87;;;9.60;99.90;;;;;;494587;240;27748;-70
2022/05/08 03:22:00;;;;;;;3.60;3.40;;;9.60;99.90;;;;;;494588;240;28266;-70
2022/05/08 03:24:01;;;;;;;4.30;4.00;;;9.50;99.90;;;;;;494621;240;28163;-70
2022/05/08 03:26:04;;;;;;;4.10;3.70;;;9.50;99.90;;;;;;494616;240;28327;-71
2022/05/08 03:28:04;;;;;;;3.73;3.43;;;9.40;99.90;;;;;;494538;240;28262;-70
2022/05/08 03:30:05;;;;;;;4.30;4.00;;;9.50;99.90;;;;;;494604;240;27969;-70
2022/05/08 03:32:06;;;;;;;4.00;3.60;;;9.40;99.90;;;;;;494585;240;27805;-70
2022/05/08 03:34:08;;;;;;;3.77;3.47;;;9.40;99.90;;;;;;494631;239;27696;-70
2022/05/08 03:36:12;;;;;;;4.13;3.60;;;9.40;99.90;;;;;;494607;240;27503;-72
2022/05/08 03:38:10;;;;;;;3.43;3.20;;;9.40;99.90;;;;;;494290;240;27826;-70
2022/05/08 03:40:11;;;;;;;3.77;3.47;;;9.40;99.90;;;;;;494587;240;27826;-70
2022/05/08 03:42:13;;;;;;;3.73;3.50;;;9.30;99.90;;;;;;494594;240;27881;-70
2022/05/08 03:44:14;;;;;;;3.60;3.40;;;9.30;99.90;;;;;;494628;240;27582;-70
2022/05/08 03:46:15;;;;;;;4.20;3.90;;;9.40;99.90;;;;;;494285;239;27832;-72
2022/05/08 03:48:16;;;;;;;3.77;3.47;;;9.40;99.90;;;;;;494588;240;27948;-70
2022/05/08 03:50:18;;;;;;;3.97;3.73;;;9.40;99.90;;;;;;494570;240;27941;-70
2022/05/08 03:52:19;;;;;;;3.70;3.40;;;9.40;99.90;;;;;;494573;240;27666;-71
2022/05/08 03:54:20;;;;;;;4.13;3.83;;;9.30;99.90;;;;;;494618;240;27834;-70
2022/05/08 03:56:21;;;;;;;3.43;3.17;;;9.30;99.90;;;;;;494600;240;27872;-72
2022/05/08 03:58:23;;;;;;;4.17;3.80;;;9.30;99.90;;;;;;494588;240;27861;-70
2022/05/08 04:00:24;;;;;;;4.10;3.80;;;9.30;99.90;;;;;;494604;240;28299;-70
2022/05/08 04:02:25;;;;;;;4.00;3.70;;;9.40;99.90;;;;;;494557;240;28309;-70
2022/05/08 04:04:26;;;;;;;3.43;3.20;;;9.30;99.90;;;;;;494591;240;28285;-70
2022/05/08 04:06:28;;;;;;;5.27;3.90;;;9.40;99.90;;;;;;494593;240;28128;-72
2022/05/08 04:08:29;;;;;;;3.77;3.40;;;9.30;99.90;;;;;;494610;240;28261;-69
2022/05/08 04:10:30;;;;;;;4.07;3.77;;;9.30;99.90;;;;;;494596;240;28383;-70
2022/05/08 04:12:31;;;;;;;3.67;3.40;;;9.30;99.90;;;;;;494507;240;28010;-69
2022/05/08 04:14:33;;;;;;;3.83;3.53;;;9.30;99.90;;;;;;494581;240;27999;-71
2022/05/08 04:16:35;;;;;;;4.30;3.90;;;9.30;99.90;;;;;;494595;240;27830;-72
2022/05/08 04:18:35;;;;;;;3.77;3.57;;;9.20;99.90;;;;;;494603;240;27784;-70
2022/05/08 04:20:36;;;;;;;3.80;3.50;;;9.20;99.90;;;;;;494620;240;27851;-70
2022/05/08 04:24:58;;;;;;;3.63;3.33;;;9.20;99.90;;;;;;494444;240;27966;-70
2022/05/08 04:26:59;;;;;;;4.63;4.23;;;9.30;99.90;;;;;;494578;240;27849;-70
2022/05/08 04:29:00;;;;;;;4.23;3.93;;;9.30;99.90;;;;;;494586;240;27856;-73
2022/05/08 04:31:01;;;;;;;3.73;3.37;;;9.40;99.90;;;;;;494596;240;27583;-71
2022/05/08 04:33:03;;;;;;;4.00;3.70;;;9.40;99.90;;;;;;494619;240;27611;-73
2022/05/08 04:35:04;;;;;;;4.20;3.90;;;9.50;99.90;;;;;;494594;240;27844;-70
2022/05/08 04:37:05;;;;;;;3.57;3.37;;;9.50;99.90;;;;;;494566;240;27841;-70
2022/05/08 04:39:06;;;;;;;3.90;3.60;;;9.50;99.90;;;;;;494604;240;28199;-69
2022/05/08 04:41:07;;;;;;;4.30;3.60;;;9.50;99.90;;;;;;494585;240;27873;-69
2022/05/08 04:43:09;;;;;;;4.40;4.00;;;9.40;99.90;;;;;;494581;240;27862;-71
2022/05/08 04:45:10;;;;;;;4.30;3.90;;;9.40;99.90;;;;;;494595;240;28047;-69
2022/05/08 04:47:11;;;;;;;3.93;3.63;;;9.40;99.90;;;;;;494472;240;28559;-70
2022/05/08 04:49:12;;;;;;;4.50;4.10;;;9.50;99.90;;;;;;494599;240;29070;-70
2022/05/08 04:51:14;;;;;;;3.70;3.50;;;9.50;99.90;;;;;;494559;240;28244;-70
2022/05/08 04:53:15;;;;;;;4.30;4.00;;;9.50;99.90;;;;;;494633;240;28396;-71
2022/05/08 04:55:16;;;;;;;4.17;3.87;;;9.60;99.90;;;;;;494616;240;27691;-70
2022/05/08 04:57:17;;;;;;;4.80;4.30;;;9.60;99.90;;;;;;494598;240;27876;-71
2022/05/08 04:59:19;;;;;;;6.80;3.77;;;9.60;99.90;;;;;;494610;240;27450;-70
2022/05/08 05:01:21;;;;;;;4.00;3.70;;;9.70;99.90;;;;;;494602;240;27791;-70
2022/05/08 05:03:21;;;;;;;3.87;3.57;;;9.70;99.90;;;;;;494548;240;27843;-73
2022/05/08 05:05:22;;;;;;;4.60;4.20;;;9.80;99.90;;;;;;494608;240;27580;-70
2022/05/08 05:07:24;;;;;;;4.37;3.97;;;9.80;99.90;;;;;;494615;240;27876;-70
2022/05/08 05:09:25;;;;;;;4.33;3.93;;;9.90;99.90;;;;;;494592;240;28021;-69
2022/05/08 05:11:26;;;;;;;4.33;4.03;;;9.90;99.90;;;;;;494625;240;28045;-70
2022/05/08 05:13:28;;;;;;;3.97;3.67;;;10.00;99.90;;;;;;494601;240;27832;-73
2022/05/08 05:15:29;;;;;;;3.90;3.60;;;10.10;99.90;;;;;;494567;240;27742;-70
2022/05/08 05:17:30;;;;;;;4.17;3.87;;;10.10;99.90;;;;;;494570;240;28060;-70
2022/05/08 05:19:31;;;;;;;4.37;4.07;;;10.00;99.90;;;;;;494595;240;27800;-69
2022/05/08 05:21:32;;;;;;;4.67;4.23;;;9.90;99.90;;;;;;494614;240;28434;-70
2022/05/08 05:23:34;;;;;;;4.73;4.33;;;9.80;99.90;;;;;;494619;240;28121;-71
2022/05/08 05:25:35;;;;;;;4.90;4.50;;;9.80;99.90;;;;;;494539;240;28367;-70
2022/05/08 05:27:36;;;;;;;4.10;3.80;;;9.80;99.90;;;;;;494572;240;28351;-71
2022/05/08 05:29:37;;;;;;;4.03;3.73;;;10.00;99.90;;;;;;494589;240;27961;-70
2022/05/08 05:31:39;;;;;;;4.40;4.00;;;10.00;99.90;;;;;;494519;240;27868;-70
2022/05/08 05:33:40;;;;;;;4.80;3.80;;;10.20;99.90;;;;;;494586;240;27969;-73
2022/05/08 05:35:41;;;;;;;4.20;3.73;;;10.40;99.90;;;;;;494553;240;27630;-70
2022/05/08 05:37:42;;;;;;;4.27;3.97;;;10.40;99.90;;;;;;494540;240;27930;-71
2022/05/08 05:39:44;;;;;;;4.07;3.77;;;10.50;99.90;;;;;;494558;240;28025;-70
2022/05/08 05:41:45;;;;;;;4.23;3.93;;;10.60;99.90;;;;;;494418;240;27918;-70
2022/05/08 05:43:46;;;;;;;4.30;4.00;;;10.60;99.90;;;;;;494184;240;27897;-70
2022/05/08 05:47:49;;;;;;;4.20;3.90;;;10.70;99.90;;;;;;494165;240;27958;-71
2022/05/08 05:47:57;;;;;;;4.50;4.10;;;10.70;99.90;;;;;;492689;240;28549;-71
2022/05/08 05:49:56;;;;;;;3.67;3.40;;;10.80;99.90;;;;;;494044;240;28379;-70
2022/05/08 05:51:57;;;;;;;4.13;3.83;;;10.90;99.90;;;;;;494206;240;28515;-70
2022/05/08 05:53:59;;;;;;;8.73;6.30;;;11.10;99.90;;;;;;494210;240;28079;-71
2022/05/08 05:56:00;;;;;;;7.10;6.50;;;11.80;99.90;;;;;;494189;240;28008;-70
2022/05/08 05:58:01;;;;;;;8.07;6.33;;;12.00;99.90;;;;;;494176;240;28097;-70
2022/05/08 06:00:02;;;;;;;8.23;6.63;;;12.00;99.90;;;;;;494133;240;28106;-72
2022/05/08 06:02:05;;;;;;;7.30;6.57;;;;;;;;;;494141;240;28345;-72
2022/05/08 06:04:06;;;;;;;6.63;6.03;;;12.20;99.90;;;;;;494200;240;27546;-70
2022/05/08 06:06:07;;;;;;;7.70;7.00;;;12.30;99.90;;;;;;494171;240;28169;-71
2022/05/08 06:08:08;;;;;;;9.60;7.10;;;12.40;99.90;;;;;;494180;240;28264;-70
2022/05/08 06:10:10;;;;;;;7.87;7.07;;;12.50;99.90;;;;;;494143;240;28158;-70
2022/05/08 06:12:12;;;;;;;7.07;6.37;;;12.50;99.90;;;;;;494167;240;28419;-70
2022/05/08 06:14:12;;;;;;;8.27;6.57;;;12.70;99.90;;;;;;494165;240;28146;-71
2022/05/08 06:16:14;;;;;;;10.43;7.10;;;12.70;99.90;;;;;;494175;240;28063;-71
2022/05/08 06:18:15;;;;;;;8.77;7.87;;;12.80;99.90;;;;;;494168;240;28580;-70
2022/05/08 06:20:16;;;;;;;8.80;7.90;;;12.80;99.90;;;;;;494170;240;28428;-71
2022/05/08 06:22:17;;;;;;;12.67;9.10;;;12.80;99.90;;;;;;494202;240;29457;-70
2022/05/08 06:24:19;;;;;;;10.33;9.23;;;12.80;99.90;;;;;;494190;240;28802;-70
2022/05/08 06:26:20;;;;;;;9.07;8.17;;;12.90;99.90;;;;;;494166;240;28646;-71
2022/05/08 06:28:21;;;;;;;10.07;8.30;;;12.90;99.90;;;;;;494161;240;28118;-70
2022/05/08 06:30:22;;;;;;;12.00;9.70;;;12.90;99.90;;;;;;494158;240;28813;-71
2022/05/08 06:32:24;;;;;;;12.37;9.10;;;12.90;99.90;;;;;;494193;240;28788;-70
2022/05/08 06:34:29;;;;;;;9.97;8.57;;;;;;;;;;494183;240;28361;-72
2022/05/08 06:36:30;;;;;;;8.50;7.70;;;13.00;99.90;;;;;;494187;240;27392;-72
2022/05/08 06:38:31;;;;;;;10.43;8.20;;;13.00;99.90;;;;;;494155;240;28918;-71
2022/05/08 06:40:32;;;;;;;9.90;8.27;;;13.10;99.90;;;;;;494143;240;28827;-71
2022/05/08 06:42:34;;;;;;;11.57;7.97;;;13.10;99.90;;;;;;494195;240;28881;-70
2022/05/08 06:44:35;;;;;;;10.00;8.70;;;13.10;99.90;;;;;;496718;239;28246;-70
2022/05/08 06:46:37;;;;;;;9.80;8.23;;;;;;;;;;495796;240;28747;-70
2022/05/08 06:48:39;;;;;;;11.83;9.63;;;13.00;99.90;;;;;;495736;240;26853;-71
2022/05/08 06:50:40;;;;;;;14.30;8.53;;;13.10;99.90;;;;;;495764;240;27964;-70
2022/05/08 06:52:41;;;;;;;9.90;7.80;;;13.20;99.90;;;;;;495795;240;28809;-70
2022/05/08 06:54:42;;;;;;;9.30;8.30;;;13.30;99.90;;;;;;495745;236;28762;-71
2022/05/08 06:56:44;;;;;;;14.83;7.83;;;13.30;99.90;;;;;;495774;240;28520;-71
2022/05/08 07:03:24;;;;;;;8.97;8.03;;;13.30;99.90;;;;;;495793;240;28012;-70
2022/05/08 07:05:25;;;;;;;9.63;8.53;;;13.40;99.90;;;;;;495765;240;28760;-71
2022/05/08 07:07:26;;;;;;;8.77;7.80;;;13.20;99.90;;;;;;495760;240;28532;-71
2022/05/08 07:09:28;;;;;;;11.40;8.50;;;13.40;99.90;;;;;;495616;240;28826;-71
2022/05/08 07:11:30;;;;;;;8.90;8.07;;;13.40;99.90;;;;;;495595;240;28827;-71
2022/05/08 07:13:32;;;;;;;9.97;8.17;;;13.40;99.90;;;;;;495454;240;28306;-71
2022/05/08 07:15:31;;;;;;;8.40;7.60;;;13.50;99.90;;;;;;495463;240;28123;-70
2022/05/08 07:17:32;;;;;;;9.30;8.30;;;13.50;99.90;;;;;;495757;240;28199;-70
2022/05/08 07:19:34;;;;;;;8.90;7.90;;;13.60;99.90;;;;;;495814;240;28081;-71
2022/05/08 07:21:35;;;;;;;8.33;7.53;;;13.70;99.90;;;;;;495776;240;28240;-71
2022/05/08 07:23:37;;;;;;;7.50;6.80;;;13.70;99.90;;;;;;495761;240;28095;-71
2022/05/08 07:25:39;;;;;;;7.80;6.93;;;13.90;99.90;;;;;;495796;240;28206;-71
2022/05/08 07:27:40;;;;;;;8.13;7.00;;;13.90;99.90;;;;;;495757;240;28205;-70
2022/05/08 07:29:41;;;;;;;6.63;6.03;;;14.10;99.90;;;;;;495804;240;28741;-71
2022/05/08 07:31:45;;;;;;;8.90;7.17;;;14.20;99.90;;;;;;495781;240;28480;-72
2022/05/08 07:33:43;;;;;;;7.60;6.90;;;14.10;99.90;;;;;;495376;240;28246;-71
2022/05/08 07:38:05;;;;;;;8.97;6.97;;;14.10;99.90;;;;;;495790;240;28103;-70
2022/05/08 07:40:06;;;;;;;10.00;7.60;;;14.30;99.90;;;;;;495799;240;28160;-71
2022/05/08 07:42:07;;;;;;;9.03;6.90;;;14.40;99.90;;;;;;495792;240;28827;-72
2022/05/08 07:44:09;;;;;;;8.07;7.23;;;14.40;99.90;;;;;;495303;236;28753;-70
2022/05/08 07:46:10;;;;;;;8.90;6.50;;;14.40;99.90;;;;;;494644;240;28843;-71
2022/05/08 07:48:11;;;;;;;8.90;6.93;;;14.60;99.90;;;;;;494657;240;29278;-70
2022/05/08 07:50:12;;;;;;;7.30;6.57;;;14.60;99.90;;;;;;494699;240;28301;-71
2022/05/08 07:52:14;;;;;;;7.10;6.40;;;14.70;99.90;;;;;;494679;240;28442;-70
2022/05/08 07:54:15;;;;;;;8.27;6.70;;;14.90;99.90;;;;;;494674;240;28417;-70
2022/05/08 07:56:16;;;;;;;7.97;6.40;;;14.90;99.90;;;;;;494642;240;28557;-70
2022/05/08 07:58:17;;;;;;;7.10;6.20;;;14.80;99.90;;;;;;494641;236;28444;-70
2022/05/08 08:00:19;;;;;;;7.10;6.40;;;14.90;99.90;;;;;;494656;240;28822;-70
2022/05/08 08:02:20;;;;;;;6.50;5.90;;;14.90;99.90;;;;;;494674;240;28438;-72
2022/05/08 08:04:21;;;;;;;7.87;6.23;;;14.90;99.90;;;;;;494656;240;28487;-70
2022/05/08 08:06:23;;;;;;;8.63;6.37;;;15.00;99.90;;;;;;494646;240;28481;-71
2022/05/08 08:08:25;;;;;;;7.27;5.57;;;14.90;99.90;;;;;;494619;240;29538;-70
2022/05/08 08:10:25;;;;;;;7.87;6.10;;;15.10;99.90;;;;;;494611;240;29368;-71
2022/05/08 08:12:26;;;;;;;10.60;6.70;;;15.20;99.90;;;;;;494643;240;29248;-71
2022/05/08 08:14:29;;;;;;;8.57;5.90;;;15.10;99.90;;;;;;494640;240;28760;-70
2022/05/08 08:16:29;;;;;;;8.10;5.90;;;15.10;99.90;;;;;;494554;240;28767;-72
2022/05/08 08:18:30;;;;;;;7.33;6.30;;;15.20;99.90;;;;;;494610;240;28445;-70
2022/05/08 08:20:31;;;;;;;7.20;6.00;;;15.40;99.90;;;;;;494690;240;28735;-71
2022/05/08 08:22:32;;;;;;;7.53;5.57;;;15.30;99.90;;;;;;494667;240;28826;-72
2022/05/08 08:24:34;;;;;;;8.00;6.23;;;15.20;99.90;;;;;;494658;240;28714;-70
2022/05/08 08:26:39;;;;;;;6.23;5.70;;;15.40;99.90;;;;;;494625;240;28976;-71
2022/05/08 08:28:36;;;;;;;9.57;6.17;;;15.60;99.90;;;;;;494392;240;29401;-72
2022/05/08 08:30:37;;;;;;;6.70;5.77;;;15.60;99.90;;;;;;494683;240;28976;-71
2022/05/08 08:32:39;;;;;;;7.80;6.40;;;15.50;99.90;;;;;;494672;240;28886;-73
2022/05/08 08:34:40;;;;;;;5.87;5.30;;;15.60;99.90;;;;;;494625;236;28723;-71
2022/05/08 08:36:41;;;;;;;8.20;6.00;;;15.60;99.90;;;;;;494631;240;28757;-71
2022/05/08 08:38:42;;;;;;;9.07;5.90;;;15.70;99.90;;;;;;494649;240;28942;-70
2022/05/08 08:40:44;;;;;;;5.63;5.13;;;15.70;99.90;;;;;;494662;240;28760;-71
2022/05/08 08:42:45;;;;;;;6.90;4.90;;;15.70;99.90;;;;;;494651;236;28868;-71
2022/05/08 08:49:25;;;;;;;6.10;5.23;;;16.20;99.90;;;;;;494632;240;28750;-72
2022/05/08 08:51:26;;;;;;;7.20;5.13;;;16.10;99.90;;;;;;494645;240;28718;-70
2022/05/08 08:53:28;;;;;;;5.80;4.70;;;16.10;99.90;;;;;;494631;240;28874;-70
2022/05/08 08:55:29;;;;;;;7.37;4.97;;;16.30;99.90;;;;;;494614;240;29706;-72
2022/05/08 08:57:30;;;;;;;6.40;5.60;;;16.40;99.90;;;;;;494663;240;29289;-70
2022/05/08 08:59:31;;;;;;;5.30;4.90;;;16.40;99.90;;;;;;494654;240;29233;-72
2022/05/08 09:01:33;;;;;;;6.60;6.00;;;16.30;99.90;;;;;;494640;237;29412;-71
2022/05/08 09:03:34;;;;;;;5.60;5.10;;;16.30;99.90;;;;;;494633;240;28758;-71
2022/05/08 09:05:35;;;;;;;6.23;5.50;;;16.40;99.90;;;;;;494664;240;28844;-75
2022/05/08 09:07:39;;;;;;;5.90;5.03;;;16.40;99.90;;;;;;494643;240;28726;-71
2022/05/08 09:09:41;;;;;;;6.70;5.33;;;16.30;99.90;;;;;;494645;240;28775;-71
2022/05/08 09:11:42;;;;;;;5.37;4.77;;;16.50;99.90;;;;;;494651;240;28781;-71
2022/05/08 09:13:43;;;;;;;6.57;4.80;;;16.60;99.90;;;;;;494649;240;28721;-71
2022/05/08 09:15:44;;;;;;;4.70;4.37;;;16.70;99.90;;;;;;494676;240;28821;-73
2022/05/08 09:17:46;;;;;;;7.43;5.20;;;16.90;99.90;;;;;;494673;240;28757;-72
2022/05/08 09:19:47;;;;;;;4.73;4.30;;;16.60;99.90;;;;;;494638;240;29263;-71
2022/05/08 09:21:54;;;;;;;4.93;4.33;;;16.70;99.90;;;;;;494627;240;29448;-71
2022/05/08 09:23:55;;;;;;;4.70;4.30;;;16.70;99.90;;;;;;494634;240;28725;-71
2022/05/08 09:25:59;;;;;;;5.57;4.63;;;16.80;99.90;;;;;;494683;240;28725;-71
2022/05/08 09:27:58;;;;;;;5.00;4.60;;;16.90;99.90;;;;;;494501;240;28760;-71
2022/05/08 09:29:59;;;;;;;5.30;4.80;;;17.10;99.90;;;;;;494625;240;28887;-71
2022/05/08 09:32:00;;;;;;;5.17;4.67;;;17.00;99.90;;;;;;494638;240;28935;-71
2022/05/08 09:34:02;;;;;;;7.23;4.73;;;17.00;99.90;;;;;;494673;240;29864;-70
2022/05/08 09:36:03;;;;;;;7.23;4.37;;;17.10;99.90;;;;;;494667;240;29997;-71
2022/05/08 09:38:04;;;;;;;4.73;4.30;;;17.30;99.90;;;;;;494689;240;29261;-72
2022/05/08 09:40:05;;;;;;;5.13;4.40;;;17.20;99.90;;;;;;494653;240;28809;-71
2022/05/08 09:42:07;;;;;;;4.30;4.00;;;17.20;99.90;;;;;;494637;240;28868;-72
2022/05/08 09:44:08;;;;;;;5.90;4.57;;;17.20;99.90;;;;;;494649;240;28761;-74
2022/05/08 09:46:09;;;;;;;5.47;4.60;;;17.40;99.90;;;;;;494651;240;28875;-71
2022/05/08 09:48:11;;;;;;;4.10;3.80;;;17.70;99.90;;;;;;494637;240;28827;-72
2022/05/08 09:50:12;;;;;;;5.07;4.67;;;17.70;99.90;;;;;;494597;240;29240;-71
2022/05/08 09:52:13;;;;;;;7.90;4.53;;;17.70;99.90;;;;;;494620;240;29204;-71
2022/05/08 09:54:16;;;;;;;4.60;4.20;;;17.90;99.90;;;;;;494656;240;28786;-72
2022/05/08 09:56:16;;;;;;;4.37;4.07;;;17.90;99.90;;;;;;494540;240;28822;-71
2022/05/08 09:58:17;;;;;;;5.90;4.60;;;17.90;99.90;;;;;;494652;240;29201;-71
2022/05/08 10:00:18;;;;;;;5.50;4.90;;;17.80;99.90;;;;;;494554;240;30096;-71
2022/05/08 10:02:19;;;;;;;4.70;4.33;;;17.80;99.90;;;;;;494690;240;29275;-71
2022/05/08 10:04:21;;;;;;;4.80;4.17;;;17.40;99.90;;;;;;494598;240;28776;-70
2022/05/08 10:06:22;;;;;;;4.77;4.27;;;17.50;99.90;;;;;;494579;240;28726;-71
2022/05/08 10:08:23;;;;;;;5.30;4.67;;;17.80;99.90;;;;;;494636;236;28931;-71
2022/05/08 10:15:03;;;;;;;4.30;3.90;;;17.80;99.90;;;;;;494654;240;28879;-71
2022/05/08 10:17:05;;;;;;;5.57;5.07;;;18.00;99.90;;;;;;494679;240;28846;-71
2022/05/08 10:19:06;;;;;;;4.77;4.37;;;18.10;99.90;;;;;;494683;240;28725;-71
2022/05/08 10:21:07;;;;;;;5.10;4.10;;;18.30;99.90;;;;;;494675;240;28850;-71
2022/05/08 10:23:08;;;;;;;4.43;4.00;;;18.30;99.90;;;;;;494654;240;28950;-70
2022/05/08 10:25:10;;;;;;;6.73;4.27;;;18.20;99.90;;;;;;494651;240;29322;-71
2022/05/08 10:27:11;;;;;;;4.87;4.47;;;18.10;99.90;;;;;;494629;240;29952;-71
2022/05/08 10:29:12;;;;;;;4.10;3.70;;;18.30;99.90;;;;;;494652;240;29177;-72
2022/05/08 10:31:13;;;;;;;4.33;3.93;;;18.40;99.90;;;;;;494652;240;28935;-75
2022/05/08 10:33:15;;;;;;;4.70;4.30;;;18.20;99.90;;;;;;494655;240;28706;-70
2022/05/08 10:35:16;;;;;;;5.93;5.30;;;18.20;99.90;;;;;;494649;240;28859;-72
2022/05/08 10:37:17;;;;;;;5.77;4.63;;;18.00;99.90;;;;;;494652;240;28865;-71
2022/05/08 10:39:18;;;;;;;6.13;5.00;;;18.00;99.90;;;;;;494653;240;28769;-72
2022/05/08 10:41:20;;;;;;;8.33;5.37;;;18.20;99.90;;;;;;494639;240;28881;-73
2022/05/08 10:43:30;;;;;;;5.20;4.73;;;18.50;99.90;;;;;;494635;240;28850;-71
2022/05/08 10:45:22;;;;;;;4.63;4.23;;;18.40;99.90;;;;;;493261;240;28856;-72
2022/05/08 10:47:23;;;;;;;5.43;4.40;;;18.50;99.90;;;;;;494608;240;29279;-71
2022/05/08 10:49:25;;;;;;;5.37;4.87;;;18.50;99.90;;;;;;494637;240;29189;-71
2022/05/08 10:51:26;;;;;;;4.30;3.90;;;18.40;99.90;;;;;;494631;240;29391;-73
2022/05/08 10:53:27;;;;;;;4.10;3.80;;;18.30;99.90;;;;;;494638;240;29276;-71
2022/05/08 10:55:28;;;;;;;4.80;4.30;;;18.40;99.90;;;;;;494643;240;28856;-71
2022/05/08 10:57:30;;;;;;;5.73;4.87;;;18.20;99.90;;;;;;494669;240;28760;-72